sensor_id;sensor_type;location;lat;lon;timestamp;P1;durP1;ratioP1;P2;durP2;ratioP2
73779;SDS011;62093;37.614;15.072;2022-12-18T00:01:39;6.75;;;3.25;;
73779;SDS011;62093;37.614;15.072;2022-12-18T00:04:06;5.75;;;3.13;;
73779;SDS011;62093;37.614;15.072;2022-12-18T00:06:46;5.53;;;3.10;;
73779;SDS011;62093;37.614;15.072;2022-12-18T00:09:15;5.95;;;3.35;;
73779;SDS011;62093;37.614;15.072;2022-12-18T00:11:51;5.75;;;3.40;;
73779;SDS011;62093;37.614;15.072;2022-12-18T00:14:22;5.80;;;3.30;;
73779;SDS011;62093;37.614;15.072;2022-12-18T00:16:49;5.75;;;2.90;;
73779;SDS011;62093;37.614;15.072;2022-12-18T00:19:15;5.57;;;3.03;;
73779;SDS011;62093;37.614;15.072;2022-12-18T00:21:42;5.88;;;2.95;;
73779;SDS011;62093;37.614;15.072;2022-12-18T00:24:10;6.22;;;3.40;;
73779;SDS011;62093;37.614;15.072;2022-12-18T00:26:37;6.05;;;3.25;;
73779;SDS011;62093;37.614;15.072;2022-12-18T00:29:10;5.57;;;3.08;;
73779;SDS011;62093;37.614;15.072;2022-12-18T00:31:39;5.70;;;3.23;;
73779;SDS011;62093;37.614;15.072;2022-12-18T00:34:06;5.60;;;3.05;;
73779;SDS011;62093;37.614;15.072;2022-12-18T00:36:34;5.43;;;3.20;;
73779;SDS011;62093;37.614;15.072;2022-12-18T00:39:01;5.70;;;3.33;;
73779;SDS011;62093;37.614;15.072;2022-12-18T00:41:30;5.78;;;3.47;;
73779;SDS011;62093;37.614;15.072;2022-12-18T00:44:30;5.70;;;3.20;;
73779;SDS011;62093;37.614;15.072;2022-12-18T00:46:56;5.57;;;3.10;;
73779;SDS011;62093;37.614;15.072;2022-12-18T00:49:22;5.72;;;3.10;;
73779;SDS011;62093;37.614;15.072;2022-12-18T00:51:49;6.78;;;3.28;;
73779;SDS011;62093;37.614;15.072;2022-12-18T00:54:15;5.85;;;3.08;;
73779;SDS011;62093;37.614;15.072;2022-12-18T00:56:41;5.60;;;2.70;;
73779;SDS011;62093;37.614;15.072;2022-12-18T00:59:08;5.82;;;2.95;;
73779;SDS011;62093;37.614;15.072;2022-12-18T01:01:34;5.00;;;3.08;;
73779;SDS011;62093;37.614;15.072;2022-12-18T01:04:01;5.53;;;2.70;;
73779;SDS011;62093;37.614;15.072;2022-12-18T01:06:28;5.95;;;2.95;;
73779;SDS011;62093;37.614;15.072;2022-12-18T01:08:55;5.33;;;2.83;;
73779;SDS011;62093;37.614;15.072;2022-12-18T01:11:21;5.55;;;2.90;;
73779;SDS011;62093;37.614;15.072;2022-12-18T01:13:47;5.70;;;3.28;;
73779;SDS011;62093;37.614;15.072;2022-12-18T01:16:14;5.18;;;2.92;;
73779;SDS011;62093;37.614;15.072;2022-12-18T01:18:42;5.88;;;2.92;;
73779;SDS011;62093;37.614;15.072;2022-12-18T01:21:19;5.30;;;2.80;;
73779;SDS011;62093;37.614;15.072;2022-12-18T01:23:46;5.15;;;3.03;;
73779;SDS011;62093;37.614;15.072;2022-12-18T01:26:13;4.97;;;2.97;;
73779;SDS011;62093;37.614;15.072;2022-12-18T01:28:41;5.80;;;3.25;;
73779;SDS011;62093;37.614;15.072;2022-12-18T01:31:10;5.07;;;2.78;;
73779;SDS011;62093;37.614;15.072;2022-12-18T01:33:39;5.73;;;2.80;;
73779;SDS011;62093;37.614;15.072;2022-12-18T01:36:05;6.20;;;3.00;;
73779;SDS011;62093;37.614;15.072;2022-12-18T01:38:31;5.28;;;2.53;;
73779;SDS011;62093;37.614;15.072;2022-12-18T01:40:58;5.40;;;2.88;;
73779;SDS011;62093;37.614;15.072;2022-12-18T01:43:58;4.78;;;2.67;;
73779;SDS011;62093;37.614;15.072;2022-12-18T01:46:20;5.80;;;3.20;;
73779;SDS011;62093;37.614;15.072;2022-12-18T01:48:49;5.57;;;3.20;;
73779;SDS011;62093;37.614;15.072;2022-12-18T01:51:19;5.93;;;2.75;;
73779;SDS011;62093;37.614;15.072;2022-12-18T01:53:46;6.10;;;2.97;;
73779;SDS011;62093;37.614;15.072;2022-12-18T01:56:15;5.40;;;2.92;;
73779;SDS011;62093;37.614;15.072;2022-12-18T02:01:24;5.28;;;2.55;;
73779;SDS011;62093;37.614;15.072;2022-12-18T02:03:51;5.72;;;2.92;;
73779;SDS011;62093;37.614;15.072;2022-12-18T02:06:27;4.53;;;2.35;;
73779;SDS011;62093;37.614;15.072;2022-12-18T02:09:08;5.03;;;2.75;;
73779;SDS011;62093;37.614;15.072;2022-12-18T02:14:17;5.93;;;3.30;;
73779;SDS011;62093;37.614;15.072;2022-12-18T02:17:04;5.32;;;2.90;;
73779;SDS011;62093;37.614;15.072;2022-12-18T02:25:40;5.60;;;3.07;;
73779;SDS011;62093;37.614;15.072;2022-12-18T02:28:20;5.18;;;2.63;;
73779;SDS011;62093;37.614;15.072;2022-12-18T02:30:54;5.70;;;2.92;;
73779;SDS011;62093;37.614;15.072;2022-12-18T02:33:22;5.68;;;2.85;;
73779;SDS011;62093;37.614;15.072;2022-12-18T02:35:51;5.88;;;2.92;;
73779;SDS011;62093;37.614;15.072;2022-12-18T02:38:20;4.90;;;2.43;;
73779;SDS011;62093;37.614;15.072;2022-12-18T02:40:49;6.07;;;2.80;;
73779;SDS011;62093;37.614;15.072;2022-12-18T02:43:19;5.75;;;2.75;;
73779;SDS011;62093;37.614;15.072;2022-12-18T02:45:47;4.72;;;2.50;;
73779;SDS011;62093;37.614;15.072;2022-12-18T02:48:15;5.90;;;3.13;;
73779;SDS011;62093;37.614;15.072;2022-12-18T02:54:14;5.03;;;2.58;;
73779;SDS011;62093;37.614;15.072;2022-12-18T02:57:15;5.50;;;2.70;;
73779;SDS011;62093;37.614;15.072;2022-12-18T02:59:49;5.15;;;2.47;;
73779;SDS011;62093;37.614;15.072;2022-12-18T03:02:37;5.00;;;2.55;;
73779;SDS011;62093;37.614;15.072;2022-12-18T03:05:19;4.97;;;2.53;;
73779;SDS011;62093;37.614;15.072;2022-12-18T03:07:57;6.15;;;2.70;;
73779;SDS011;62093;37.614;15.072;2022-12-18T03:10:32;5.40;;;2.72;;
73779;SDS011;62093;37.614;15.072;2022-12-18T03:13:05;5.13;;;2.55;;
73779;SDS011;62093;37.614;15.072;2022-12-18T03:15:38;5.45;;;2.70;;
73779;SDS011;62093;37.614;15.072;2022-12-18T03:18:45;4.60;;;2.30;;
73779;SDS011;62093;37.614;15.072;2022-12-18T03:21:12;6.10;;;2.72;;
73779;SDS011;62093;37.614;15.072;2022-12-18T03:23:42;4.88;;;2.50;;
73779;SDS011;62093;37.614;15.072;2022-12-18T03:26:14;5.13;;;2.60;;
73779;SDS011;62093;37.614;15.072;2022-12-18T03:28:48;6.43;;;2.80;;
73779;SDS011;62093;37.614;15.072;2022-12-18T03:31:19;4.90;;;2.37;;
73779;SDS011;62093;37.614;15.072;2022-12-18T03:33:54;4.95;;;2.70;;
73779;SDS011;62093;37.614;15.072;2022-12-18T03:36:25;4.72;;;2.47;;
73779;SDS011;62093;37.614;15.072;2022-12-18T03:38:57;5.40;;;2.63;;
73779;SDS011;62093;37.614;15.072;2022-12-18T03:41:43;5.95;;;2.50;;
73779;SDS011;62093;37.614;15.072;2022-12-18T03:44:46;4.63;;;2.40;;
73779;SDS011;62093;37.614;15.072;2022-12-18T03:47:30;5.15;;;2.47;;
73779;SDS011;62093;37.614;15.072;2022-12-18T03:52:57;4.97;;;2.58;;
73779;SDS011;62093;37.614;15.072;2022-12-18T03:55:34;4.80;;;2.20;;
73779;SDS011;62093;37.614;15.072;2022-12-18T03:58:04;5.10;;;2.30;;
73779;SDS011;62093;37.614;15.072;2022-12-18T04:00:45;5.47;;;2.72;;
73779;SDS011;62093;37.614;15.072;2022-12-18T04:03:13;5.07;;;2.53;;
73779;SDS011;62093;37.614;15.072;2022-12-18T04:05:45;5.40;;;2.95;;
73779;SDS011;62093;37.614;15.072;2022-12-18T04:08:18;5.47;;;2.70;;
73779;SDS011;62093;37.614;15.072;2022-12-18T04:10:53;4.90;;;2.40;;
73779;SDS011;62093;37.614;15.072;2022-12-18T04:13:23;4.88;;;2.25;;
73779;SDS011;62093;37.614;15.072;2022-12-18T04:15:53;4.82;;;2.38;;
73779;SDS011;62093;37.614;15.072;2022-12-18T04:18:21;4.95;;;2.40;;
73779;SDS011;62093;37.614;15.072;2022-12-18T04:20:47;5.30;;;2.47;;
73779;SDS011;62093;37.614;15.072;2022-12-18T04:23:14;4.83;;;2.60;;
73779;SDS011;62093;37.614;15.072;2022-12-18T04:25:40;6.43;;;2.72;;
73779;SDS011;62093;37.614;15.072;2022-12-18T04:28:10;5.13;;;2.40;;
73779;SDS011;62093;37.614;15.072;2022-12-18T04:30:38;4.80;;;2.50;;
73779;SDS011;62093;37.614;15.072;2022-12-18T04:33:08;4.78;;;2.00;;
73779;SDS011;62093;37.614;15.072;2022-12-18T04:35:39;5.37;;;2.83;;
73779;SDS011;62093;37.614;15.072;2022-12-18T04:38:06;4.95;;;2.35;;
73779;SDS011;62093;37.614;15.072;2022-12-18T04:40:37;5.45;;;2.45;;
73779;SDS011;62093;37.614;15.072;2022-12-18T04:43:09;4.50;;;2.20;;
73779;SDS011;62093;37.614;15.072;2022-12-18T04:45:35;4.35;;;2.20;;
73779;SDS011;62093;37.614;15.072;2022-12-18T04:48:02;4.60;;;2.43;;
73779;SDS011;62093;37.614;15.072;2022-12-18T04:50:28;4.10;;;2.38;;
73779;SDS011;62093;37.614;15.072;2022-12-18T04:52:54;4.68;;;2.15;;
73779;SDS011;62093;37.614;15.072;2022-12-18T04:55:20;4.70;;;2.50;;
73779;SDS011;62093;37.614;15.072;2022-12-18T04:57:49;4.38;;;2.03;;
73779;SDS011;62093;37.614;15.072;2022-12-18T05:00:15;5.30;;;2.50;;
73779;SDS011;62093;37.614;15.072;2022-12-18T05:02:41;5.00;;;2.20;;
73779;SDS011;62093;37.614;15.072;2022-12-18T05:05:08;5.32;;;2.47;;
73779;SDS011;62093;37.614;15.072;2022-12-18T05:07:34;4.70;;;2.40;;
73779;SDS011;62093;37.614;15.072;2022-12-18T05:10:00;4.88;;;2.28;;
73779;SDS011;62093;37.614;15.072;2022-12-18T05:12:26;4.70;;;2.20;;
73779;SDS011;62093;37.614;15.072;2022-12-18T05:14:52;4.80;;;2.15;;
73779;SDS011;62093;37.614;15.072;2022-12-18T05:17:18;4.43;;;2.30;;
73779;SDS011;62093;37.614;15.072;2022-12-18T05:19:44;4.30;;;2.08;;
73779;SDS011;62093;37.614;15.072;2022-12-18T05:22:10;5.07;;;2.60;;
73779;SDS011;62093;37.614;15.072;2022-12-18T05:24:36;4.80;;;2.38;;
73779;SDS011;62093;37.614;15.072;2022-12-18T05:27:02;4.53;;;2.10;;
73779;SDS011;62093;37.614;15.072;2022-12-18T05:29:28;4.37;;;1.80;;
73779;SDS011;62093;37.614;15.072;2022-12-18T05:31:54;4.30;;;2.20;;
73779;SDS011;62093;37.614;15.072;2022-12-18T05:34:20;4.50;;;2.20;;
73779;SDS011;62093;37.614;15.072;2022-12-18T05:36:46;4.43;;;2.15;;
73779;SDS011;62093;37.614;15.072;2022-12-18T05:39:13;4.93;;;2.03;;
73779;SDS011;62093;37.614;15.072;2022-12-18T05:41:39;4.57;;;2.07;;
73779;SDS011;62093;37.614;15.072;2022-12-18T05:44:05;4.53;;;2.40;;
73779;SDS011;62093;37.614;15.072;2022-12-18T05:46:31;4.93;;;2.10;;
73779;SDS011;62093;37.614;15.072;2022-12-18T05:49:00;4.47;;;1.98;;
73779;SDS011;62093;37.614;15.072;2022-12-18T05:51:26;4.28;;;2.10;;
73779;SDS011;62093;37.614;15.072;2022-12-18T05:53:53;5.13;;;2.00;;
73779;SDS011;62093;37.614;15.072;2022-12-18T05:56:21;4.63;;;2.10;;
73779;SDS011;62093;37.614;15.072;2022-12-18T05:58:50;4.43;;;2.17;;
73779;SDS011;62093;37.614;15.072;2022-12-18T06:01:19;4.78;;;1.92;;
73779;SDS011;62093;37.614;15.072;2022-12-18T06:03:47;4.55;;;2.22;;
73779;SDS011;62093;37.614;15.072;2022-12-18T06:06:18;4.53;;;2.17;;
73779;SDS011;62093;37.614;15.072;2022-12-18T06:08:49;4.57;;;2.10;;
73779;SDS011;62093;37.614;15.072;2022-12-18T06:11:16;4.10;;;2.00;;
73779;SDS011;62093;37.614;15.072;2022-12-18T06:13:44;4.32;;;1.90;;
73779;SDS011;62093;37.614;15.072;2022-12-18T06:16:10;4.28;;;1.92;;
73779;SDS011;62093;37.614;15.072;2022-12-18T06:18:37;5.40;;;1.93;;
73779;SDS011;62093;37.614;15.072;2022-12-18T06:21:03;4.70;;;2.00;;
73779;SDS011;62093;37.614;15.072;2022-12-18T06:23:29;5.20;;;2.40;;
73779;SDS011;62093;37.614;15.072;2022-12-18T06:25:55;4.50;;;2.00;;
73779;SDS011;62093;37.614;15.072;2022-12-18T06:28:21;5.17;;;2.00;;
73779;SDS011;62093;37.614;15.072;2022-12-18T06:30:48;4.55;;;2.00;;
73779;SDS011;62093;37.614;15.072;2022-12-18T06:33:15;4.30;;;2.22;;
73779;SDS011;62093;37.614;15.072;2022-12-18T06:35:41;4.20;;;2.00;;
73779;SDS011;62093;37.614;15.072;2022-12-18T06:38:07;5.18;;;2.00;;
73779;SDS011;62093;37.614;15.072;2022-12-18T06:40:33;4.20;;;2.10;;
73779;SDS011;62093;37.614;15.072;2022-12-18T06:42:59;4.55;;;2.17;;
73779;SDS011;62093;37.614;15.072;2022-12-18T06:45:25;4.57;;;2.00;;
73779;SDS011;62093;37.614;15.072;2022-12-18T06:47:51;3.97;;;1.80;;
73779;SDS011;62093;37.614;15.072;2022-12-18T06:50:17;4.22;;;1.77;;
73779;SDS011;62093;37.614;15.072;2022-12-18T06:52:43;4.50;;;1.90;;
73779;SDS011;62093;37.614;15.072;2022-12-18T06:55:09;4.15;;;2.05;;
73779;SDS011;62093;37.614;15.072;2022-12-18T06:57:36;4.20;;;1.90;;
73779;SDS011;62093;37.614;15.072;2022-12-18T07:00:03;5.22;;;2.15;;
73779;SDS011;62093;37.614;15.072;2022-12-18T07:02:30;4.03;;;1.87;;
73779;SDS011;62093;37.614;15.072;2022-12-18T07:04:57;4.43;;;2.03;;
73779;SDS011;62093;37.614;15.072;2022-12-18T07:07:23;4.65;;;1.63;;
73779;SDS011;62093;37.614;15.072;2022-12-18T07:09:50;4.55;;;2.22;;
73779;SDS011;62093;37.614;15.072;2022-12-18T07:12:16;5.65;;;2.08;;
73779;SDS011;62093;37.614;15.072;2022-12-18T07:14:42;4.60;;;1.97;;
73779;SDS011;62093;37.614;15.072;2022-12-18T07:17:09;4.30;;;2.10;;
73779;SDS011;62093;37.614;15.072;2022-12-18T07:19:35;4.30;;;2.20;;
73779;SDS011;62093;37.614;15.072;2022-12-18T07:22:01;4.50;;;2.13;;
73779;SDS011;62093;37.614;15.072;2022-12-18T07:24:27;4.85;;;1.77;;
73779;SDS011;62093;37.614;15.072;2022-12-18T07:26:53;4.37;;;2.20;;
73779;SDS011;62093;37.614;15.072;2022-12-18T07:29:19;4.30;;;1.90;;
73779;SDS011;62093;37.614;15.072;2022-12-18T07:31:46;3.95;;;1.73;;
73779;SDS011;62093;37.614;15.072;2022-12-18T07:34:12;4.60;;;2.10;;
73779;SDS011;62093;37.614;15.072;2022-12-18T07:36:40;4.20;;;1.80;;
73779;SDS011;62093;37.614;15.072;2022-12-18T07:39:06;5.40;;;2.00;;
73779;SDS011;62093;37.614;15.072;2022-12-18T07:41:32;3.95;;;1.88;;
73779;SDS011;62093;37.614;15.072;2022-12-18T07:44:09;5.07;;;1.88;;
73779;SDS011;62093;37.614;15.072;2022-12-18T07:46:36;4.20;;;2.00;;
73779;SDS011;62093;37.614;15.072;2022-12-18T07:49:02;4.43;;;1.60;;
73779;SDS011;62093;37.614;15.072;2022-12-18T07:51:28;4.28;;;1.95;;
73779;SDS011;62093;37.614;15.072;2022-12-18T07:53:54;3.70;;;1.58;;
73779;SDS011;62093;37.614;15.072;2022-12-18T07:56:20;4.75;;;1.90;;
73779;SDS011;62093;37.614;15.072;2022-12-18T07:58:46;4.53;;;2.00;;
73779;SDS011;62093;37.614;15.072;2022-12-18T08:01:12;4.80;;;1.63;;
73779;SDS011;62093;37.614;15.072;2022-12-18T08:03:39;4.40;;;1.92;;
73779;SDS011;62093;37.614;15.072;2022-12-18T08:06:06;4.40;;;1.52;;
73779;SDS011;62093;37.614;15.072;2022-12-18T08:08:34;3.75;;;1.70;;
73779;SDS011;62093;37.614;15.072;2022-12-18T08:11:01;4.07;;;2.00;;
73779;SDS011;62093;37.614;15.072;2022-12-18T08:13:27;3.90;;;1.83;;
73779;SDS011;62093;37.614;15.072;2022-12-18T08:18:31;6.05;;;1.98;;
73779;SDS011;62093;37.614;15.072;2022-12-18T08:21:07;3.90;;;1.90;;
73779;SDS011;62093;37.614;15.072;2022-12-18T08:23:40;4.57;;;1.50;;
73779;SDS011;62093;37.614;15.072;2022-12-18T08:26:07;3.92;;;1.83;;
73779;SDS011;62093;37.614;15.072;2022-12-18T08:28:33;4.32;;;1.67;;
73779;SDS011;62093;37.614;15.072;2022-12-18T08:31:00;4.07;;;1.80;;
73779;SDS011;62093;37.614;15.072;2022-12-18T08:33:26;5.60;;;1.67;;
73779;SDS011;62093;37.614;15.072;2022-12-18T08:35:52;4.18;;;1.63;;
73779;SDS011;62093;37.614;15.072;2022-12-18T08:38:18;4.13;;;1.65;;
73779;SDS011;62093;37.614;15.072;2022-12-18T08:40:44;3.90;;;1.70;;
73779;SDS011;62093;37.614;15.072;2022-12-18T08:43:10;4.23;;;1.80;;
73779;SDS011;62093;37.614;15.072;2022-12-18T08:45:55;4.10;;;1.90;;
73779;SDS011;62093;37.614;15.072;2022-12-18T08:48:21;4.68;;;2.15;;
73779;SDS011;62093;37.614;15.072;2022-12-18T08:50:54;4.03;;;1.67;;
73779;SDS011;62093;37.614;15.072;2022-12-18T08:53:24;3.83;;;1.40;;
73779;SDS011;62093;37.614;15.072;2022-12-18T08:55:50;4.68;;;1.73;;
73779;SDS011;62093;37.614;15.072;2022-12-18T08:58:16;3.95;;;1.63;;
73779;SDS011;62093;37.614;15.072;2022-12-18T09:00:42;4.10;;;1.55;;
73779;SDS011;62093;37.614;15.072;2022-12-18T09:03:11;3.90;;;1.70;;
73779;SDS011;62093;37.614;15.072;2022-12-18T09:05:42;4.20;;;1.73;;
73779;SDS011;62093;37.614;15.072;2022-12-18T09:08:08;4.53;;;1.70;;
73779;SDS011;62093;37.614;15.072;2022-12-18T09:10:40;4.32;;;1.67;;
73779;SDS011;62093;37.614;15.072;2022-12-18T09:13:10;3.70;;;1.70;;
73779;SDS011;62093;37.614;15.072;2022-12-18T09:15:41;4.35;;;1.80;;
73779;SDS011;62093;37.614;15.072;2022-12-18T09:18:08;5.82;;;2.17;;
73779;SDS011;62093;37.614;15.072;2022-12-18T09:20:35;4.22;;;1.55;;
73779;SDS011;62093;37.614;15.072;2022-12-18T09:23:02;4.90;;;2.03;;
73779;SDS011;62093;37.614;15.072;2022-12-18T09:25:31;4.53;;;2.03;;
73779;SDS011;62093;37.614;15.072;2022-12-18T09:27:59;4.47;;;2.08;;
73779;SDS011;62093;37.614;15.072;2022-12-18T09:30:26;4.50;;;2.00;;
73779;SDS011;62093;37.614;15.072;2022-12-18T09:32:55;4.68;;;1.80;;
73779;SDS011;62093;37.614;15.072;2022-12-18T09:35:21;5.22;;;1.67;;
73779;SDS011;62093;37.614;15.072;2022-12-18T09:37:47;4.57;;;1.73;;
73779;SDS011;62093;37.614;15.072;2022-12-18T09:40:14;4.45;;;1.98;;
73779;SDS011;62093;37.614;15.072;2022-12-18T09:42:48;3.80;;;1.73;;
73779;SDS011;62093;37.614;15.072;2022-12-18T09:45:19;3.80;;;1.55;;
73779;SDS011;62093;37.614;15.072;2022-12-18T09:47:45;4.50;;;1.90;;
73779;SDS011;62093;37.614;15.072;2022-12-18T09:52:49;4.50;;;1.92;;
73779;SDS011;62093;37.614;15.072;2022-12-18T09:55:23;5.50;;;1.98;;
73779;SDS011;62093;37.614;15.072;2022-12-18T09:57:54;4.25;;;1.60;;
73779;SDS011;62093;37.614;15.072;2022-12-18T10:00:26;4.30;;;1.70;;
73779;SDS011;62093;37.614;15.072;2022-12-18T10:02:53;3.90;;;1.52;;
73779;SDS011;62093;37.614;15.072;2022-12-18T10:05:41;5.10;;;1.90;;
73779;SDS011;62093;37.614;15.072;2022-12-18T10:08:13;4.57;;;1.80;;
73779;SDS011;62093;37.614;15.072;2022-12-18T10:10:51;4.35;;;2.00;;
73779;SDS011;62093;37.614;15.072;2022-12-18T10:21:41;4.18;;;1.38;;
73779;SDS011;62093;37.614;15.072;2022-12-18T10:26:53;4.23;;;1.87;;
73779;SDS011;62093;37.614;15.072;2022-12-18T10:29:25;4.53;;;1.73;;
73779;SDS011;62093;37.614;15.072;2022-12-18T10:31:51;5.95;;;2.10;;
73779;SDS011;62093;37.614;15.072;2022-12-18T10:34:17;4.65;;;1.63;;
73779;SDS011;62093;37.614;15.072;2022-12-18T10:36:43;4.00;;;1.70;;
73779;SDS011;62093;37.614;15.072;2022-12-18T10:39:16;4.30;;;1.70;;
73779;SDS011;62093;37.614;15.072;2022-12-18T10:41:48;3.92;;;1.60;;
73779;SDS011;62093;37.614;15.072;2022-12-18T10:46:44;5.78;;;1.75;;
73779;SDS011;62093;37.614;15.072;2022-12-18T10:49:18;4.15;;;1.92;;
73779;SDS011;62093;37.614;15.072;2022-12-18T10:51:46;5.40;;;1.87;;
73779;SDS011;62093;37.614;15.072;2022-12-18T10:54:16;4.57;;;1.98;;
73779;SDS011;62093;37.614;15.072;2022-12-18T10:56:46;4.82;;;1.85;;
73779;SDS011;62093;37.614;15.072;2022-12-18T10:59:13;4.70;;;1.55;;
73779;SDS011;62093;37.614;15.072;2022-12-18T11:01:49;6.32;;;2.00;;
73779;SDS011;62093;37.614;15.072;2022-12-18T11:04:26;4.10;;;1.70;;
73779;SDS011;62093;37.614;15.072;2022-12-18T11:07:03;5.28;;;1.90;;
73779;SDS011;62093;37.614;15.072;2022-12-18T11:09:31;4.25;;;1.70;;
73779;SDS011;62093;37.614;15.072;2022-12-18T11:11:59;5.82;;;2.00;;
73779;SDS011;62093;37.614;15.072;2022-12-18T11:17:16;3.83;;;1.60;;
73779;SDS011;62093;37.614;15.072;2022-12-18T11:20:04;4.30;;;1.80;;
73779;SDS011;62093;37.614;15.072;2022-12-18T11:22:35;4.65;;;1.77;;
73779;SDS011;62093;37.614;15.072;2022-12-18T11:25:04;4.93;;;1.60;;
73779;SDS011;62093;37.614;15.072;2022-12-18T11:27:31;4.28;;;1.60;;
73779;SDS011;62093;37.614;15.072;2022-12-18T11:30:09;4.17;;;1.67;;
73779;SDS011;62093;37.614;15.072;2022-12-18T11:35:51;4.38;;;1.67;;
73779;SDS011;62093;37.614;15.072;2022-12-18T11:38:29;4.93;;;1.58;;
73779;SDS011;62093;37.614;15.072;2022-12-18T11:41:04;5.82;;;2.00;;
73779;SDS011;62093;37.614;15.072;2022-12-18T11:43:56;4.17;;;2.00;;
73779;SDS011;62093;37.614;15.072;2022-12-18T11:46:29;4.47;;;2.00;;
73779;SDS011;62093;37.614;15.072;2022-12-18T11:49:15;3.97;;;1.90;;
73779;SDS011;62093;37.614;15.072;2022-12-18T11:51:51;4.70;;;1.60;;
73779;SDS011;62093;37.614;15.072;2022-12-18T11:54:24;4.50;;;1.70;;
73779;SDS011;62093;37.614;15.072;2022-12-18T11:56:58;4.40;;;1.70;;
73779;SDS011;62093;37.614;15.072;2022-12-18T12:23:59;3.92;;;1.55;;
73779;SDS011;62093;37.614;15.072;2022-12-18T12:26:45;4.32;;;1.80;;
73779;SDS011;62093;37.614;15.072;2022-12-18T12:31:53;3.95;;;1.75;;
73779;SDS011;62093;37.614;15.072;2022-12-18T12:37:39;4.13;;;1.55;;
73779;SDS011;62093;37.614;15.072;2022-12-18T12:40:16;3.78;;;1.40;;
73779;SDS011;62093;37.614;15.072;2022-12-18T12:42:46;6.30;;;2.30;;
73779;SDS011;62093;37.614;15.072;2022-12-18T12:45:36;4.50;;;1.75;;
73779;SDS011;62093;37.614;15.072;2022-12-18T12:54:33;4.93;;;1.80;;
73779;SDS011;62093;37.614;15.072;2022-12-18T12:57:22;5.07;;;1.73;;
73779;SDS011;62093;37.614;15.072;2022-12-18T13:02:57;5.27;;;1.87;;
73779;SDS011;62093;37.614;15.072;2022-12-18T13:05:54;3.95;;;1.83;;
73779;SDS011;62093;37.614;15.072;2022-12-18T13:08:27;4.30;;;1.80;;
73779;SDS011;62093;37.614;15.072;2022-12-18T13:10:55;4.90;;;1.70;;
73779;SDS011;62093;37.614;15.072;2022-12-18T13:13:50;4.43;;;1.80;;
73779;SDS011;62093;37.614;15.072;2022-12-18T13:16:18;4.57;;;1.77;;
73779;SDS011;62093;37.614;15.072;2022-12-18T13:18:53;5.18;;;1.83;;
73779;SDS011;62093;37.614;15.072;2022-12-18T13:21:24;4.63;;;1.75;;
73779;SDS011;62093;37.614;15.072;2022-12-18T13:23:52;4.47;;;1.90;;
73779;SDS011;62093;37.614;15.072;2022-12-18T13:31:12;4.55;;;1.73;;
73779;SDS011;62093;37.614;15.072;2022-12-18T13:33:39;5.05;;;1.50;;
73779;SDS011;62093;37.614;15.072;2022-12-18T13:36:13;4.63;;;1.80;;
73779;SDS011;62093;37.614;15.072;2022-12-18T13:38:40;4.30;;;1.70;;
73779;SDS011;62093;37.614;15.072;2022-12-18T13:44:10;4.15;;;1.63;;
73779;SDS011;62093;37.614;15.072;2022-12-18T13:46:54;5.28;;;1.75;;
73779;SDS011;62093;37.614;15.072;2022-12-18T13:49:25;4.43;;;1.80;;
73779;SDS011;62093;37.614;15.072;2022-12-18T13:51:57;4.13;;;2.00;;
73779;SDS011;62093;37.614;15.072;2022-12-18T13:56:51;4.22;;;2.08;;
73779;SDS011;62093;37.614;15.072;2022-12-18T13:59:21;4.55;;;2.03;;
73779;SDS011;62093;37.614;15.072;2022-12-18T14:01:56;4.55;;;1.80;;
73779;SDS011;62093;37.614;15.072;2022-12-18T14:04:28;4.53;;;2.00;;
73779;SDS011;62093;37.614;15.072;2022-12-18T14:07:01;4.10;;;1.83;;
73779;SDS011;62093;37.614;15.072;2022-12-18T14:09:33;5.78;;;2.10;;
73779;SDS011;62093;37.614;15.072;2022-12-18T14:12:02;4.65;;;1.60;;
73779;SDS011;62093;37.614;15.072;2022-12-18T14:14:48;4.20;;;2.13;;
73779;SDS011;62093;37.614;15.072;2022-12-18T14:17:17;4.33;;;1.50;;
73779;SDS011;62093;37.614;15.072;2022-12-18T14:19:48;4.63;;;2.30;;
73779;SDS011;62093;37.614;15.072;2022-12-18T14:22:17;4.10;;;1.80;;
73779;SDS011;62093;37.614;15.072;2022-12-18T14:24:46;5.47;;;2.33;;
73779;SDS011;62093;37.614;15.072;2022-12-18T14:27:30;4.70;;;1.80;;
73779;SDS011;62093;37.614;15.072;2022-12-18T14:29:55;4.40;;;2.10;;
73779;SDS011;62093;37.614;15.072;2022-12-18T14:32:22;4.85;;;1.98;;
73779;SDS011;62093;37.614;15.072;2022-12-18T14:34:49;4.03;;;1.67;;
73779;SDS011;62093;37.614;15.072;2022-12-18T14:37:20;5.55;;;1.95;;
73779;SDS011;62093;37.614;15.072;2022-12-18T14:40:00;4.43;;;1.60;;
73779;SDS011;62093;37.614;15.072;2022-12-18T14:42:31;4.00;;;1.73;;
73779;SDS011;62093;37.614;15.072;2022-12-18T14:47:59;5.00;;;1.80;;
73779;SDS011;62093;37.614;15.072;2022-12-18T14:50:25;4.43;;;2.15;;
73779;SDS011;62093;37.614;15.072;2022-12-18T14:52:52;4.57;;;1.60;;
73779;SDS011;62093;37.614;15.072;2022-12-18T14:55:18;4.55;;;1.90;;
73779;SDS011;62093;37.614;15.072;2022-12-18T14:57:48;5.40;;;2.40;;
73779;SDS011;62093;37.614;15.072;2022-12-18T15:00:17;3.88;;;1.80;;
73779;SDS011;62093;37.614;15.072;2022-12-18T15:02:50;5.13;;;2.30;;
73779;SDS011;62093;37.614;15.072;2022-12-18T15:05:27;5.17;;;2.10;;
73779;SDS011;62093;37.614;15.072;2022-12-18T15:07:56;4.53;;;1.85;;
73779;SDS011;62093;37.614;15.072;2022-12-18T15:10:25;5.03;;;2.53;;
73779;SDS011;62093;37.614;15.072;2022-12-18T15:23:21;4.47;;;2.22;;
73779;SDS011;62093;37.614;15.072;2022-12-18T15:26:02;4.10;;;1.95;;
73779;SDS011;62093;37.614;15.072;2022-12-18T15:28:40;5.20;;;2.30;;
73779;SDS011;62093;37.614;15.072;2022-12-18T15:33:45;5.05;;;1.95;;
73779;SDS011;62093;37.614;15.072;2022-12-18T15:36:26;3.95;;;1.83;;
73779;SDS011;62093;37.614;15.072;2022-12-18T15:38:53;5.03;;;2.22;;
73779;SDS011;62093;37.614;15.072;2022-12-18T15:41:21;5.15;;;2.20;;
73779;SDS011;62093;37.614;15.072;2022-12-18T15:43:48;4.03;;;1.70;;
73779;SDS011;62093;37.614;15.072;2022-12-18T15:46:16;5.20;;;2.22;;
73779;SDS011;62093;37.614;15.072;2022-12-18T15:48:44;4.32;;;2.08;;
73779;SDS011;62093;37.614;15.072;2022-12-18T15:51:19;4.78;;;1.70;;
73779;SDS011;62093;37.614;15.072;2022-12-18T15:53:48;4.82;;;2.10;;
73779;SDS011;62093;37.614;15.072;2022-12-18T15:56:17;4.87;;;2.00;;
73779;SDS011;62093;37.614;15.072;2022-12-18T15:59:01;4.95;;;2.22;;
73779;SDS011;62093;37.614;15.072;2022-12-18T16:01:29;4.45;;;2.10;;
73779;SDS011;62093;37.614;15.072;2022-12-18T16:03:56;4.20;;;2.00;;
73779;SDS011;62093;37.614;15.072;2022-12-18T16:06:23;4.57;;;2.13;;
73779;SDS011;62093;37.614;15.072;2022-12-18T16:08:49;5.33;;;2.40;;
73779;SDS011;62093;37.614;15.072;2022-12-18T16:16:42;4.55;;;2.10;;
73779;SDS011;62093;37.614;15.072;2022-12-18T16:19:08;4.88;;;2.00;;
73779;SDS011;62093;37.614;15.072;2022-12-18T16:21:34;4.60;;;2.13;;
73779;SDS011;62093;37.614;15.072;2022-12-18T16:24:00;4.38;;;1.90;;
73779;SDS011;62093;37.614;15.072;2022-12-18T16:26:26;4.13;;;1.88;;
73779;SDS011;62093;37.614;15.072;2022-12-18T16:28:52;4.95;;;2.03;;
73779;SDS011;62093;37.614;15.072;2022-12-18T16:31:18;4.45;;;2.28;;
73779;SDS011;62093;37.614;15.072;2022-12-18T16:33:45;4.87;;;2.00;;
73779;SDS011;62093;37.614;15.072;2022-12-18T16:36:13;4.40;;;2.22;;
73779;SDS011;62093;37.614;15.072;2022-12-18T16:38:39;5.00;;;2.30;;
73779;SDS011;62093;37.614;15.072;2022-12-18T16:41:18;4.50;;;2.08;;
73779;SDS011;62093;37.614;15.072;2022-12-18T16:43:56;5.00;;;2.40;;
73779;SDS011;62093;37.614;15.072;2022-12-18T16:46:23;4.90;;;2.43;;